Accueil
METAR-TAF:

METAR-TAF

Aéroports :

Nouakchott, Mauritanie

Aéroport international de Nouakchott-Oumtounsy

latitude: 18-18-36N, longitude: 015-58-11W, altitude: 3 m

Observation

Le bulletin a été fait il y a 39 minutes, à 20:30 UTC
Vent 15 kt de nord/nord-ouest
Température 20°C
Humidité 78%
Pression 1013 hPa
Visibilité: 8000 m

METAR: GQNO 242030Z 33015KT 8000 NSC 20/16 Q1013 NOSIG

Heure: 21:09 (21:09 UTC)

Prévision

Le bulletin a été fait il y a 4 heures et 9 minutes, à 17:00 UTC
Prévision valable du 24 à 18 UTC au 25 à 24 UTC
Vent 16 kt de nord/nord-ouest
Visibilité: 6000 m
Temporairement
du 25 à 09 UTC au 25 à 15 UTC
Vent 14 kt de nord-est
Probabilité 30% :
Temporairement
du 25 à 10 UTC au 25 à 16 UTC
Visibilité: 2500 m
Chasse-poussière élevée

TAF: GQNO 241700Z 2418/2524 34016KT 6000 NSC TEMPO 2509/2515 05014KT PROB30 TEMPO 2510/2516 2500 BLDU

Observations et prévisions météorologiques de plus de 4000 aéroports (messages METAR et TAF).

Les stations disponibles sont représentées par des disques jaunes et rouges sur la carte.

Passer la souris dessus pour voir le nom de la station.

Cliquer dessus pour voir les observations et prévisions météorologiques.

Pour changer de carte: cliquez sur les boutons verts avec une croix noire pour zoomer, sur le bouton vert avec un tiret pour effectuer un zoom arrière, ou sur les flèches vertes pour les cartes adjacentes.


METAR-TAF: